SIRI09 ULLI-UWGG
Flight info
| Callsign | SIRI09 |
|---|---|
| Flight time | N/A |
| Altitude | 30000 |
| Route | SUGI1A SUGIN T873 NIRGI T73 DESUD P164 GAKLU N869 RANTO |
| Aircraft | B738/M-VGD/A |
Departure
| Time | 2026-05-05 17:34 |
|---|---|
| Airport | Pulkovo Airport (ULLI) |
Arrival
| Time | N/A |
|---|---|
| Airport | Nizhny Novgorod / Strigino International Airport (UWGG) |
| Time | Latitude | Longitude | Altitude | Speed | Heading |
|---|---|---|---|---|---|
| 2026-05-05 17:03 | 59.80322 | 30.26253 | 83 ft | 0 kts | 287° |
| 2026-05-05 17:14 | 59.80320 | 30.26259 | 83 ft | 3 kts | 287° |
| 2026-05-05 17:15 | 59.80314 | 30.26303 | 83 ft | 2 kts | 287° |
| 2026-05-05 17:15 | 59.80309 | 30.26333 | 83 ft | 1 kts | 296° |
| 2026-05-05 17:15 | 59.80303 | 30.26351 | 83 ft | 1 kts | 314° |
| 2026-05-05 17:15 | 59.80296 | 30.26363 | 83 ft | 1 kts | 330° |
| 2026-05-05 17:16 | 59.80288 | 30.26370 | 83 ft | 1 kts | 345° |
| 2026-05-05 17:16 | 59.80280 | 30.26374 | 83 ft | 1 kts | 0° |
| 2026-05-05 17:16 | 59.80276 | 30.26374 | 83 ft | 0 kts | 8° |
| 2026-05-05 17:16 | 59.80278 | 30.26374 | 83 ft | 0 kts | 7° |
| 2026-05-05 17:17 | 59.80280 | 30.26375 | 83 ft | 0 kts | 7° |
| 2026-05-05 17:17 | 59.80281 | 30.26375 | 83 ft | 0 kts | 7° |
| 2026-05-05 17:17 | 59.80283 | 30.26376 | 83 ft | 0 kts | 7° |
| 2026-05-05 17:17 | 59.80286 | 30.26376 | 83 ft | 0 kts | 6° |
| 2026-05-05 17:18 | 59.80286 | 30.26377 | 83 ft | 0 kts | 6° |
| 2026-05-05 17:25 | 59.80300 | 30.26380 | 83 ft | 2 kts | 6° |
| 2026-05-05 17:26 | 59.80309 | 30.26384 | 82 ft | 2 kts | 19° |
| 2026-05-05 17:26 | 59.80311 | 30.26386 | 82 ft | 1 kts | 24° |
| 2026-05-05 17:26 | 59.80335 | 30.26422 | 81 ft | 7 kts | 32° |
| 2026-05-05 17:26 | 59.80407 | 30.26465 | 79 ft | 13 kts | 18° |
| 2026-05-05 17:27 | 59.80432 | 30.26635 | 78 ft | 18 kts | 106° |
| 2026-05-05 17:27 | 59.80391 | 30.26908 | 78 ft | 20 kts | 106° |
| 2026-05-05 17:27 | 59.80353 | 30.27162 | 76 ft | 19 kts | 106° |
| 2026-05-05 17:27 | 59.80315 | 30.27421 | 77 ft | 18 kts | 106° |
| 2026-05-05 17:28 | 59.80279 | 30.27659 | 77 ft | 17 kts | 106° |
| 2026-05-05 17:28 | 59.80244 | 30.27895 | 75 ft | 17 kts | 105° |
| 2026-05-05 17:28 | 59.80210 | 30.28126 | 73 ft | 17 kts | 106° |
| 2026-05-05 17:28 | 59.80181 | 30.28315 | 73 ft | 0 kts | 106° |
| 2026-05-05 17:29 | 59.80173 | 30.28370 | 73 ft | 6 kts | 106° |
| 2026-05-05 17:29 | 59.80157 | 30.28479 | 73 ft | 9 kts | 106° |
| 2026-05-05 17:29 | 59.80134 | 30.28636 | 74 ft | 13 kts | 106° |
| 2026-05-05 17:30 | 59.80102 | 30.28853 | 73 ft | 18 kts | 106° |
| 2026-05-05 17:30 | 59.80060 | 30.29132 | 72 ft | 23 kts | 106° |
| 2026-05-05 17:30 | 59.80009 | 30.29469 | 73 ft | 27 kts | 106° |
| 2026-05-05 17:30 | 59.79961 | 30.29793 | 73 ft | 25 kts | 106° |
| 2026-05-05 17:31 | 59.79958 | 30.30058 | 75 ft | 15 kts | 52° |
| 2026-05-05 17:31 | 59.79978 | 30.30104 | 74 ft | 0 kts | 47° |
| 2026-05-05 17:31 | 59.79979 | 30.30106 | 74 ft | 0 kts | 47° |
| 2026-05-05 17:31 | 59.79993 | 30.30137 | 73 ft | 9 kts | 47° |
| 2026-05-05 17:32 | 59.80065 | 30.30268 | 73 ft | 15 kts | 21° |
| 2026-05-05 17:32 | 59.80134 | 30.30185 | 73 ft | 9 kts | 287° |
| 2026-05-05 17:32 | 59.80142 | 30.30136 | 73 ft | 7 kts | 287° |
| 2026-05-05 17:32 | 59.80164 | 30.29994 | 73 ft | 11 kts | 287° |
| 2026-05-05 17:33 | 59.80201 | 30.29738 | 70 ft | 42 kts | 286° |
| 2026-05-05 17:33 | 59.80357 | 30.28698 | 70 ft | 111 kts | 286° |
| 2026-05-05 17:33 | 59.80637 | 30.26879 | 146 ft | 157 kts | 287° |
| 2026-05-05 17:33 | 59.80946 | 30.24753 | 615 ft | 157 kts | 287° |
| 2026-05-05 17:34 | 59.81284 | 30.22621 | 518 ft | 163 kts | 287° |
| 2026-05-05 17:34 | 59.81607 | 30.20448 | 626 ft | 171 kts | 286° |
| 2026-05-05 17:34 | 59.81941 | 30.18154 | 1122 ft | 175 kts | 286° |
| 2026-05-05 17:34 | 59.82276 | 30.15840 | 1636 ft | 177 kts | 286° |
| 2026-05-05 17:35 | 59.82619 | 30.13462 | 2093 ft | 180 kts | 286° |
| 2026-05-05 17:35 | 59.82964 | 30.11021 | 2548 ft | 185 kts | 278° |
| 2026-05-05 17:35 | 59.83223 | 30.08630 | 3053 ft | 185 kts | 291° |
| 2026-05-05 17:35 | 59.83650 | 30.06178 | 3438 ft | 186 kts | 286° |
| 2026-05-05 17:36 | 59.84028 | 30.03735 | 3875 ft | 185 kts | 285° |
| 2026-05-05 17:36 | 59.84396 | 30.01282 | 4315 ft | 185 kts | 282° |
| 2026-05-05 17:36 | 59.84309 | 29.98800 | 4785 ft | 185 kts | 243° |
| 2026-05-05 17:36 | 59.83394 | 29.97004 | 5281 ft | 193 kts | 207° |
| 2026-05-05 17:37 | 59.82094 | 29.96246 | 5772 ft | 194 kts | 204° |
| 2026-05-05 17:37 | 59.81249 | 29.95735 | 6054 ft | 192 kts | 203° |
| 2026-05-05 17:37 | 59.79556 | 29.94748 | 6674 ft | 189 kts | 204° |
| 2026-05-05 17:37 | 59.78283 | 29.94012 | 7100 ft | 190 kts | 204° |
| 2026-05-05 17:38 | 59.77011 | 29.93279 | 7554 ft | 191 kts | 204° |
| 2026-05-05 17:38 | 59.75728 | 29.92543 | 8002 ft | 192 kts | 204° |
| 2026-05-05 17:38 | 59.74404 | 29.92069 | 8427 ft | 206 kts | 180° |
| 2026-05-05 17:38 | 59.73036 | 29.93235 | 8943 ft | 231 kts | 147° |
| 2026-05-05 17:39 | 59.72066 | 29.95978 | 9453 ft | 256 kts | 114° |
| 2026-05-05 17:39 | 59.71795 | 29.99573 | 10005 ft | 276 kts | 101° |
| 2026-05-05 17:39 | 59.71424 | 30.03403 | 10513 ft | 292 kts | 110° |
| 2026-05-05 17:39 | 59.70885 | 30.07389 | 10962 ft | 301 kts | 111° |
| 2026-05-05 17:40 | 59.70316 | 30.11330 | 11387 ft | 301 kts | 112° |
| 2026-05-05 17:40 | 59.69745 | 30.15309 | 11805 ft | 303 kts | 105° |
| 2026-05-05 17:40 | 59.69595 | 30.19513 | 12292 ft | 311 kts | 95° |
| 2026-05-05 17:40 | 59.69522 | 30.23856 | 12705 ft | 315 kts | 95° |
| 2026-05-05 17:41 | 59.69445 | 30.28274 | 13138 ft | 317 kts | 95° |
| 2026-05-05 17:41 | 59.69369 | 30.32617 | 13595 ft | 319 kts | 96° |
| 2026-05-05 17:41 | 59.69033 | 30.36953 | 14016 ft | 317 kts | 108° |
| 2026-05-05 17:41 | 59.68580 | 30.41208 | 14470 ft | 321 kts | 107° |
| 2026-05-05 17:42 | 59.68121 | 30.45530 | 14896 ft | 323 kts | 107° |
| 2026-05-05 17:42 | 59.67651 | 30.49940 | 15346 ft | 324 kts | 107° |
| 2026-05-05 17:42 | 59.67185 | 30.54291 | 15811 ft | 328 kts | 107° |
| 2026-05-05 17:42 | 59.66712 | 30.58707 | 16233 ft | 330 kts | 107° |
| 2026-05-05 17:43 | 59.66226 | 30.63227 | 16691 ft | 333 kts | 107° |
| 2026-05-05 17:43 | 59.65741 | 30.67717 | 17123 ft | 338 kts | 108° |
| 2026-05-05 17:43 | 59.65416 | 30.71073 | 17446 ft | 350 kts | 104° |
| 2026-05-05 17:43 | 59.64939 | 30.76995 | 17765 ft | 376 kts | 104° |
| 2026-05-05 17:44 | 59.64647 | 30.80525 | 17757 ft | 396 kts | 104° |
| 2026-05-05 17:44 | 59.64400 | 30.83513 | 17783 ft | 407 kts | 103° |